Markham, Canada
Current Conditions -  °F | °C
As of 10:00 PM on Friday 21 Nov 2014 (Local Time) from CYKZ Reporting Station
Few Clouds Few Clouds  
Wind Chill: 10°   Ceiling: Unl
Heat Index: 19°   Visibility: 15mi
Dew Point:   Wind: 7mph
Humidity: 63%   Direction: 250°WSW
Pressure: 30.36"   Gusts: NA
Location:  43.86°N, 79.34°W
Report Text: CYKZ 220300Z 25006KT 15SM FEW100 FEW120 M07/M13 A3036 RMK AC1AS0 SLP293
Loading
Personal Weather Stations






























Interactive Weather Map New forecast layout! Learn more

10-Day Weather Forecast

Advertisements
Track Severe Weather on mobile